Time;durP1;ratioP1;P1;durP2;ratioP2;P2;SDS_P1;SDS_P2;PMS_P1;PMS_P2;Temp;Humidity;BMP_temperature;BMP_pressure;BME280_temperature;BME280_humidity;BME280_pressure;Samples;Min_cycle;Max_cycle;Signal;HPM_P1;HPM_P2
2022/11/15 00:02:11;;;;;;;0.60;0.60;;;;;;;;;;5072167;28;20174;-76
2022/11/15 00:04:37;;;;;;;0.60;0.60;;;;;;;;;;5070647;28;20202;-77
2022/11/15 00:07:03;;;;;;;0.60;0.60;;;;;;;;;;5065630;28;20517;-77
2022/11/15 00:09:29;;;;;;;0.80;0.80;;;;;;;;;;5080802;28;20174;-77
2022/11/15 00:11:55;;;;;;;0.70;0.70;;;;;;;;;;5073345;28;20182;-77
2022/11/15 00:14:21;;;;;;;0.60;0.60;;;;;;;;;;5057235;28;20215;-77
2022/11/15 00:16:47;;;;;;;0.70;0.70;;;;;;;;;;5052748;28;20270;-76
2022/11/15 00:19:13;;;;;;;0.60;0.60;;;;;;;;;;5053034;28;20210;-76
2022/11/15 00:21:39;;;;;;;0.70;0.70;;;;;;;;;;5042565;28;20182;-76
2022/11/15 00:24:05;;;;;;;0.70;0.70;;;;;;;;;;5059580;28;20261;-75
2022/11/15 00:26:31;;;;;;;0.60;0.60;;;;;;;;;;5052653;28;20182;-76
2022/11/15 00:28:57;;;;;;;0.60;0.60;;;;;;;;;;5056193;28;20174;-77
2022/11/15 00:31:23;;;;;;;0.63;0.63;;;;;;;;;;5072329;28;20612;-77
2022/11/15 00:33:49;;;;;;;0.50;0.50;;;;;;;;;;5061347;28;20218;-77
2022/11/15 00:36:15;;;;;;;0.70;0.70;;;;;;;;;;5052558;28;20225;-77
2022/11/15 00:38:41;;;;;;;0.70;0.70;;;;;;;;;;5052270;28;20343;-77
2022/11/15 00:41:08;;;;;;;0.80;0.80;;;;;;;;;;5052208;28;20595;-76
2022/11/15 00:43:34;;;;;;;0.60;0.60;;;;;;;;;;5061264;28;20232;-76
2022/11/15 00:46:02;;;;;;;0.60;0.60;;;;;;;;;;5059194;28;20214;-77
2022/11/15 00:48:28;;;;;;;0.70;0.70;;;;;;;;;;5068608;28;20183;-77
2022/11/15 00:50:54;;;;;;;0.70;0.70;;;;;;;;;;5076132;28;20643;-77
2022/11/15 00:53:19;;;;;;;0.70;0.70;;;;;;;;;;5066692;28;20188;-77
2022/11/15 00:55:46;;;;;;;0.70;0.70;;;;;;;;;;5051541;28;20203;-77
2022/11/15 00:58:12;;;;;;;0.70;0.70;;;;;;;;;;5051802;28;20206;-76
2022/11/15 01:00:38;;;;;;;0.70;0.70;;;;;;;;;;5068771;28;20659;-77
2022/11/15 01:03:04;;;;;;;0.60;0.60;;;;;;;;;;5072113;28;20170;-77
2022/11/15 01:05:30;;;;;;;0.70;0.70;;;;;;;;;;5064022;28;20622;-77
2022/11/15 01:07:56;;;;;;;0.60;0.60;;;;;;;;;;5052544;28;20632;-77
2022/11/15 01:10:23;;;;;;;0.60;0.60;;;;;;;;;;5066249;28;20175;-77
2022/11/15 01:12:50;;;;;;;0.70;0.70;;;;;;;;;;5068952;28;20227;-77
2022/11/15 01:15:16;;;;;;;0.70;0.70;;;;;;;;;;5051154;28;20210;-77
2022/11/15 01:17:42;;;;;;;0.70;0.70;;;;;;;;;;5052075;28;20186;-77
2022/11/15 01:20:08;;;;;;;0.70;0.70;;;;;;;;;;5051253;28;20202;-77
2022/11/15 01:22:34;;;;;;;0.77;0.77;;;;;;;;;;5051225;28;20312;-77
2022/11/15 01:25:00;;;;;;;0.67;0.67;;;;;;;;;;5069769;28;20297;-77
2022/11/15 01:27:26;;;;;;;0.70;0.70;;;;;;;;;;5071095;28;20182;-77
2022/11/15 01:29:52;;;;;;;0.60;0.60;;;;;;;;;;5071068;28;20178;-77
2022/11/15 01:32:17;;;;;;;0.70;0.70;;;;;;;;;;5071355;28;20272;-77
2022/11/15 01:34:43;;;;;;;0.80;0.80;;;;;;;;;;5052552;28;20258;-76
2022/11/15 01:37:10;;;;;;;0.70;0.70;;;;;;;;;;5037141;28;20175;-77
2022/11/15 01:39:36;;;;;;;0.70;0.70;;;;;;;;;;5063187;28;20186;-76
2022/11/15 01:42:02;;;;;;;0.70;0.70;;;;;;;;;;5051060;28;20178;-76
2022/11/15 01:44:31;;;;;;;0.60;0.60;;;;;;;;;;5065107;28;20659;-76
2022/11/15 01:46:58;;;;;;;0.70;0.70;;;;;;;;;;5070651;28;20179;-77
2022/11/15 01:49:24;;;;;;;0.70;0.70;;;;;;;;;;5070801;28;20202;-76
2022/11/15 01:51:50;;;;;;;0.70;0.70;;;;;;;;;;5070361;28;20213;-77
2022/11/15 01:54:18;;;;;;;0.70;0.70;;;;;;;;;;5056050;28;20211;-76
2022/11/15 01:56:46;;;;;;;0.67;0.67;;;;;;;;;;5052028;28;20178;-77
2022/11/15 01:59:12;;;;;;;0.70;0.70;;;;;;;;;;5051006;28;20236;-76
2022/11/15 02:01:38;;;;;;;0.60;0.60;;;;;;;;;;5051310;28;20171;-76
2022/11/15 02:04:24;;;;;;;0.70;0.70;;;;;;;;;;5051476;28;20206;-77
2022/11/15 02:06:50;;;;;;;0.70;0.70;;;;;;;;;;5065258;28;20269;-77
2022/11/15 02:09:17;;;;;;;0.60;0.60;;;;;;;;;;5070256;28;20240;-77
2022/11/15 02:11:44;;;;;;;0.60;0.60;;;;;;;;;;5070769;28;20178;-76
2022/11/15 02:14:11;;;;;;;0.80;0.80;;;;;;;;;;5056910;28;20215;-76
2022/11/15 02:16:59;;;;;;;0.70;0.70;;;;;;;;;;5050886;28;20286;-77
2022/11/15 02:19:31;;;;;;;0.60;0.60;;;;;;;;;;5050830;28;20202;-77
2022/11/15 02:22:03;;;;;;;0.70;0.70;;;;;;;;;;5050547;28;20194;-77
2022/11/15 02:24:48;;;;;;;0.80;0.80;;;;;;;;;;5065512;28;20198;-76
2022/11/15 02:27:29;;;;;;;0.70;0.70;;;;;;;;;;5070361;28;20784;-76
2022/11/15 02:30:14;;;;;;;0.80;0.80;;;;;;;;;;5070312;28;20186;-76
2022/11/15 02:32:52;;;;;;;0.70;0.70;;;;;;;;;;5058351;28;20190;-76
2022/11/15 02:35:21;;;;;;;0.70;0.70;;;;;;;;;;5073272;28;20712;-76
2022/11/15 02:37:58;;;;;;;0.80;0.80;;;;;;;;;;5073772;28;20209;-76
2022/11/15 02:40:32;;;;;;;0.80;0.80;;;;;;;;;;5073639;28;20273;-76
2022/11/15 02:45:50;;;;;;;0.73;0.73;;;;;;;;;;5053909;28;20206;-75
2022/11/15 02:48:17;;;;;;;0.70;0.70;;;;;;;;;;5054226;28;20270;-76
2022/11/15 02:50:43;;;;;;;0.83;0.83;;;;;;;;;;5070052;28;20178;-76
2022/11/15 02:53:09;;;;;;;0.83;0.83;;;;;;;;;;5073173;28;20186;-77
2022/11/15 02:55:36;;;;;;;0.87;0.87;;;;;;;;;;5074300;28;20222;-77
2022/11/15 02:58:21;;;;;;;0.70;0.70;;;;;;;;;;5064533;28;20183;-77
2022/11/15 03:01:07;;;;;;;0.70;0.70;;;;;;;;;;5069855;28;20178;-76
2022/11/15 03:03:49;;;;;;;0.70;0.70;;;;;;;;;;5052330;28;20195;-76
2022/11/15 03:06:22;;;;;;;0.80;0.80;;;;;;;;;;5054124;28;20221;-77
2022/11/15 03:08:58;;;;;;;0.77;0.77;;;;;;;;;;5054280;28;20247;-76
2022/11/15 03:11:24;;;;;;;0.70;0.70;;;;;;;;;;5057899;28;20742;-76
2022/11/15 03:13:58;;;;;;;0.70;0.70;;;;;;;;;;5062351;28;20211;-77
2022/11/15 03:16:42;;;;;;;0.80;0.80;;;;;;;;;;5053598;28;20179;-77
2022/11/15 03:19:22;;;;;;;0.80;0.80;;;;;;;;;;5053364;28;20244;-77
2022/11/15 03:21:49;;;;;;;0.80;0.80;;;;;;;;;;5053491;28;20186;-76
2022/11/15 03:24:16;;;;;;;0.80;0.80;;;;;;;;;;5064885;28;20276;-77
2022/11/15 03:26:44;;;;;;;0.70;0.70;;;;;;;;;;5073194;28;20178;-76
2022/11/15 03:29:19;;;;;;;0.87;0.87;;;;;;;;;;5072569;28;20186;-77
2022/11/15 03:31:49;;;;;;;0.90;0.90;;;;;;;;;;5067121;28;20178;-76
2022/11/15 03:34:29;;;;;;;0.70;0.70;;;;;;;;;;5071372;28;20698;-77
2022/11/15 03:36:56;;;;;;;0.70;0.70;;;;;;;;;;5076931;28;20241;-77
2022/11/15 03:39:22;;;;;;;0.70;0.70;;;;;;;;;;5076893;28;20269;-77
2022/11/15 03:41:53;;;;;;;0.70;0.70;;;;;;;;;;5067556;28;20315;-77
2022/11/15 03:44:19;;;;;;;0.70;0.70;;;;;;;;;;5064401;28;20281;-76
2022/11/15 03:46:58;;;;;;;0.80;0.80;;;;;;;;;;5072740;28;20174;-76
2022/11/15 03:49:29;;;;;;;0.80;0.80;;;;;;;;;;5070418;28;20274;-76
2022/11/15 03:51:57;;;;;;;0.80;0.80;;;;;;;;;;5059075;28;20220;-76
2022/11/15 03:54:23;;;;;;;0.80;0.80;;;;;;;;;;5058001;28;20219;-76
2022/11/15 03:56:49;;;;;;;0.70;0.70;;;;;;;;;;5052805;28;20175;-76
2022/11/15 03:59:15;;;;;;;0.60;0.60;;;;;;;;;;5052671;28;20179;-76
2022/11/15 04:01:41;;;;;;;0.70;0.70;;;;;;;;;;5052721;28;20175;-76
2022/11/15 04:04:07;;;;;;;0.70;0.70;;;;;;;;;;5053508;28;20194;-77
2022/11/15 04:06:33;;;;;;;0.80;0.80;;;;;;;;;;5052732;28;20179;-77
2022/11/15 04:08:59;;;;;;;0.80;0.80;;;;;;;;;;5052362;28;20183;-76
2022/11/15 04:11:25;;;;;;;0.70;0.70;;;;;;;;;;5053422;28;20240;-76
2022/11/15 04:13:51;;;;;;;0.80;0.80;;;;;;;;;;5067972;28;20206;-76
2022/11/15 04:16:17;;;;;;;0.70;0.70;;;;;;;;;;5064192;28;20624;-75
2022/11/15 04:18:42;;;;;;;0.70;0.70;;;;;;;;;;5051995;28;20667;-75
2022/11/15 04:26:31;;;;;;;0.70;0.70;;;;;;;;;;5052669;28;20198;-76
2022/11/15 04:31:42;;;;;;;0.70;0.70;;;;;;;;;;5052345;28;20777;-76
2022/11/15 04:34:08;;;;;;;0.70;0.70;;;;;;;;;;5058031;28;20220;-75
2022/11/15 04:39:18;;;;;;;0.80;0.80;;;;;;;;;;5071144;28;20716;-77
2022/11/15 04:41:44;;;;;;;0.80;0.80;;;;;;;;;;5069761;28;20174;-77
2022/11/15 04:44:10;;;;;;;0.70;0.70;;;;;;;;;;5057312;28;20236;-76
2022/11/15 04:46:36;;;;;;;0.77;0.77;;;;;;;;;;5071389;28;20185;-76
2022/11/15 04:49:02;;;;;;;0.70;0.70;;;;;;;;;;5059173;28;20179;-76
2022/11/15 04:51:28;;;;;;;0.70;0.70;;;;;;;;;;5051742;28;20190;-77
2022/11/15 04:53:54;;;;;;;0.80;0.80;;;;;;;;;;5054805;28;20233;-77
2022/11/15 04:56:20;;;;;;;0.80;0.80;;;;;;;;;;5060375;28;20239;-77
2022/11/15 04:58:45;;;;;;;0.80;0.80;;;;;;;;;;5061500;28;20325;-77
2022/11/15 05:01:14;;;;;;;0.70;0.70;;;;;;;;;;5051360;28;20183;-77
2022/11/15 05:06:25;;;;;;;0.70;0.70;;;;;;;;;;5051373;28;20845;-76
2022/11/15 05:08:51;;;;;;;0.80;0.80;;;;;;;;;;5061276;28;20290;-76
2022/11/15 05:11:17;;;;;;;0.80;0.80;;;;;;;;;;5070913;28;20202;-77
2022/11/15 05:13:43;;;;;;;0.80;0.80;;;;;;;;;;5067776;28;20713;-77
2022/11/15 05:16:08;;;;;;;0.90;0.90;;;;;;;;;;5077719;28;20320;-77
2022/11/15 05:18:35;;;;;;;0.80;0.80;;;;;;;;;;5071084;28;20298;-77
2022/11/15 05:21:07;;;;;;;0.80;0.80;;;;;;;;;;5071446;28;20186;-77
2022/11/15 05:23:33;;;;;;;0.70;0.70;;;;;;;;;;5068861;28;20251;-76
2022/11/15 05:25:59;;;;;;;0.80;0.80;;;;;;;;;;5051130;28;20626;-77
2022/11/15 05:28:25;;;;;;;0.70;0.70;;;;;;;;;;5051348;28;20179;-76
2022/11/15 05:30:51;;;;;;;0.70;0.70;;;;;;;;;;5051299;28;20531;-77
2022/11/15 05:33:18;;;;;;;0.80;0.80;;;;;;;;;;5051328;28;20548;-78
2022/11/15 05:35:47;;;;;;;0.90;0.90;;;;;;;;;;5070225;28;20214;-77
2022/11/15 05:38:13;;;;;;;0.70;0.70;;;;;;;;;;5071139;28;20529;-77
2022/11/15 05:40:39;;;;;;;0.70;0.70;;;;;;;;;;5070893;28;20179;-77
2022/11/15 05:43:05;;;;;;;0.90;0.90;;;;;;;;;;5070708;28;20244;-77
2022/11/15 05:45:32;;;;;;;0.70;0.70;;;;;;;;;;5051842;28;20329;-76
2022/11/15 05:47:59;;;;;;;0.90;0.90;;;;;;;;;;5056097;28;20268;-76
2022/11/15 05:50:25;;;;;;;0.83;0.83;;;;;;;;;;5074424;28;20217;-77
2022/11/15 05:52:52;;;;;;;0.70;0.70;;;;;;;;;;5076932;28;20281;-76
2022/11/15 05:55:18;;;;;;;0.87;0.87;;;;;;;;;;5074715;28;20226;-75
2022/11/15 05:57:45;;;;;;;0.80;0.80;;;;;;;;;;5051649;28;20529;-75
2022/11/15 06:00:11;;;;;;;0.80;0.80;;;;;;;;;;5051238;28;20198;-77
2022/11/15 06:02:37;;;;;;;0.70;0.70;;;;;;;;;;5055592;28;20227;-76
2022/11/15 06:05:03;;;;;;;0.70;0.70;;;;;;;;;;5070716;28;20194;-77
2022/11/15 06:07:29;;;;;;;0.70;0.70;;;;;;;;;;5074291;28;20186;-78
2022/11/15 06:09:55;;;;;;;0.80;0.80;;;;;;;;;;5063948;28;20697;-77
2022/11/15 06:12:21;;;;;;;0.70;0.70;;;;;;;;;;5067125;28;20269;-78
2022/11/15 06:14:47;;;;;;;0.80;0.80;;;;;;;;;;5053350;28;20230;-77
2022/11/15 06:17:13;;;;;;;0.70;0.70;;;;;;;;;;5054424;28;20254;-76
2022/11/15 06:19:39;;;;;;;0.70;0.70;;;;;;;;;;5054498;28;20243;-77
2022/11/15 06:22:05;;;;;;;0.80;0.80;;;;;;;;;;5054695;28;20557;-76
2022/11/15 06:24:31;;;;;;;0.80;0.80;;;;;;;;;;5053915;28;20222;-77
2022/11/15 06:26:58;;;;;;;0.87;0.87;;;;;;;;;;5054687;28;20167;-76
2022/11/15 06:29:24;;;;;;;0.73;0.73;;;9.80;1.00;;;;;;5054407;28;20179;-77
2022/11/15 06:31:50;;;;;;;0.97;0.97;;;;;;;;;;5054320;28;20229;-77
2022/11/15 06:34:16;;;;;;;0.90;0.90;;;;;;;;;;5053807;28;20572;-77
2022/11/15 06:36:42;;;;;;;0.80;0.80;;;;;;;;;;5054217;28;20179;-77
2022/11/15 06:39:08;;;;;;;0.77;0.77;;;;;;;;;;5054719;28;20186;-77
2022/11/15 06:41:35;;;;;;;0.77;0.77;;;;;;;;;;5054247;28;20175;-76
2022/11/15 06:44:01;;;;;;;0.77;0.77;;;;;;;;;;5053684;28;20673;-76
2022/11/15 06:46:27;;;;;;;0.80;0.80;;;;;;;;;;5054513;28;20274;-77
2022/11/15 06:48:53;;;;;;;0.80;0.80;;;;;;;;;;5054418;28;20229;-77
2022/11/15 06:51:19;;;;;;;0.90;0.90;;;;;;;;;;5054281;28;20179;-76
2022/11/15 06:53:45;;;;;;;0.50;0.50;;;;;;;;;;5053137;28;20400;-77
2022/11/15 06:56:11;;;;;;;0.60;0.60;;;;;;;;;;5054440;28;20425;-77
2022/11/15 06:58:37;;;;;;;0.80;0.80;;;;;;;;;;5054195;28;20313;-76
2022/11/15 07:01:05;;;;;;;0.70;0.70;;;;;;;;;;5054117;28;20179;-74
2022/11/15 07:03:31;;;;;;;0.70;0.70;;;;;;;;;;5068372;28;20190;-75
2022/11/15 07:05:57;;;;;;;0.67;0.67;;;;;;;;;;5065211;28;20213;-74
2022/11/15 07:08:24;;;;;;;0.70;0.70;;;;;;;;;;5073766;28;20186;-75
2022/11/15 07:10:50;;;;;;;0.70;0.70;;;;;;;;;;5073311;28;20647;-74
2022/11/15 07:13:16;;;;;;;0.70;0.70;;;;;;;;;;5073015;28;20174;-75
2022/11/15 07:15:42;;;;;;;0.80;0.80;;;;;;;;;;5067937;28;20214;-75
2022/11/15 07:18:08;;;;;;;0.60;0.60;;;;;;;;;;5062727;28;20175;-76
2022/11/15 07:20:34;;;;;;;0.70;0.70;;;;;;;;;;5066792;28;20206;-77
2022/11/15 07:23:01;;;;;;;0.70;0.70;;;;;;;;;;5053679;28;20182;-77
2022/11/15 07:25:27;;;;;;;0.63;0.63;;;;;;;;;;5052592;28;20203;-74
2022/11/15 07:28:00;;;;;;;0.60;0.60;;;;;;;;;;5053406;28;20171;-77
2022/11/15 07:30:26;;;;;;;0.50;0.50;;;;;;;;;;5057634;28;20654;-76
2022/11/15 07:32:56;;;;;;;0.50;0.50;;;;;;;;;;5053532;28;20580;-76
2022/11/15 07:35:22;;;;;;;0.60;0.60;;;;;;;;;;5052825;28;20214;-76
2022/11/15 07:37:55;;;;;;;0.50;0.50;;;;;;;;;;5053265;28;20175;-76
2022/11/15 07:40:21;;;;;;;0.50;0.50;;;;;;;;;;5052822;28;20178;-77
2022/11/15 07:42:53;;;;;;;0.50;0.50;;;;;;;;;;5056206;28;20170;-76
2022/11/15 07:45:20;;;;;;;0.50;0.50;;;;;;;;;;5072479;28;20225;-77
2022/11/15 07:47:46;;;;;;;0.50;0.50;;;;;;;;;;5072888;28;20532;-76
2022/11/15 07:50:12;;;;;;;0.43;0.43;;;;;;;;;;5073226;28;20274;-77
2022/11/15 07:52:38;;;;;;;0.50;0.50;;;;;;;;;;5072749;28;20220;-77
2022/11/15 07:55:04;;;;;;;0.50;0.50;;;;;;;;;;5072442;28;20210;-77
2022/11/15 07:57:30;;;;;;;0.30;0.30;;;;;;;;;;5073115;28;20174;-77
2022/11/15 07:59:56;;;;;;;0.30;0.30;;;;;;;;;;5072706;28;20550;-77
2022/11/15 08:02:22;;;;;;;0.40;0.40;;;4.20;99.90;;;;;;5073657;28;20236;-78
2022/11/15 08:04:47;;;;;;;0.40;0.40;;;21.20;1.00;;;;;;5074553;28;20207;-77
2022/11/15 08:07:13;;;;;;;0.53;0.53;;;21.80;1.00;;;;;;5074877;28;20171;-77
2022/11/15 08:09:38;;;;;;;0.30;0.30;;;22.60;1.00;;;;;;5074064;28;20178;-77
2022/11/15 08:12:05;;;;;;;0.30;0.30;;;23.30;1.00;;;;;;5076746;28;20221;-77
2022/11/15 08:14:31;;;;;;;0.40;0.40;;;;;;;;;;5073461;28;20242;-77
2022/11/15 08:16:57;;;;;;;0.30;0.30;;;23.20;1.00;;;;;;5074471;28;20232;-77
2022/11/15 08:19:23;;;;;;;0.40;0.40;;;;;;;;;;5073128;28;20194;-77
2022/11/15 08:21:48;;;;;;;0.43;0.43;;;;;;;;;;5067292;28;20658;-77
2022/11/15 08:24:15;;;;;;;0.20;0.20;;;;;;;;;;5071996;28;20195;-77
2022/11/15 08:26:41;;;;;;;0.40;0.40;;;;;;;;;;5072530;28;20194;-77
2022/11/15 08:29:10;;;;;;;0.37;0.37;;;;;;;;;;5071883;28;20304;-77
2022/11/15 08:31:36;;;;;;;0.30;0.30;;;;;;;;;;5072906;28;20247;-77
2022/11/15 08:34:03;;;;;;;0.40;0.40;;;;;;;;;;5069682;28;20611;-77
2022/11/15 08:36:29;;;;;;;0.40;0.40;;;;;;;;;;5067858;28;20179;-76
2022/11/15 08:38:55;;;;;;;0.33;0.33;;;;;;;;;;5070227;28;20657;-77
2022/11/15 08:41:30;;;;;;;0.30;0.30;;;;;;;;;;5072264;28;20186;-76
2022/11/15 08:43:56;;;;;;;0.40;0.40;;;20.70;1.00;;;;;;5071793;28;20582;-76
2022/11/15 08:46:21;;;;;;;0.40;0.40;;;17.20;1.00;;;;;;5071798;28;20296;-76
2022/11/15 08:48:47;;;;;;;0.30;0.30;;;17.50;1.00;;;;;;5071335;28;20522;-76
2022/11/15 08:51:13;;;;;;;0.40;0.40;;;;;;;;;;5071547;28;20202;-77
2022/11/15 08:53:39;;;;;;;0.40;0.40;;;;;;;;;;5071316;28;20175;-77
2022/11/15 08:56:08;;;;;;;0.30;0.30;;;;;;;;;;5071480;28;20209;-77
2022/11/15 08:58:34;;;;;;;0.40;0.40;;;;;;;;;;5072371;28;20182;-77
2022/11/15 09:01:00;;;;;;;0.30;0.30;;;;;;;;;;5071461;28;20239;-77
2022/11/15 09:03:26;;;;;;;0.50;0.50;;;;;;;;;;5071502;28;20170;-77
2022/11/15 09:05:59;;;;;;;0.40;0.40;;;17.90;1.00;;;;;;5071858;28;20730;-77
2022/11/15 09:08:26;;;;;;;0.30;0.30;;;;;;;;;;5072246;28;20185;-77
2022/11/15 09:10:52;;;;;;;0.40;0.40;;;;;;;;;;5072074;28;20204;-77
2022/11/15 09:13:18;;;;;;;0.40;0.40;;;;;;;;;;5072019;28;20179;-77
2022/11/15 09:15:44;;;;;;;0.50;0.50;;;;;;;;;;5070617;28;20876;-77
2022/11/15 09:18:10;;;;;;;0.40;0.40;;;;;;;;;;5071271;28;20178;-77
2022/11/15 09:20:36;;;;;;;0.50;0.50;;;;;;;;;;5071252;28;20646;-76
2022/11/15 09:23:03;;;;;;;0.40;0.40;;;;;;;;;;5072211;28;20281;-77
2022/11/15 09:25:29;;;;;;;0.30;0.30;;;;;;;;;;5071160;28;20194;-77
2022/11/15 09:27:55;;;;;;;0.30;0.30;;;22.00;1.00;;;;;;5071586;28;20270;-76
2022/11/15 09:30:21;;;;;;;0.37;0.37;;;18.50;1.00;;;;;;5072789;28;20213;-78
2022/11/15 09:32:47;;;;;;;0.30;0.30;;;17.90;1.00;;;;;;5072838;28;20232;-77
2022/11/15 09:35:12;;;;;;;0.33;0.33;;;17.50;1.00;;;;;;5071377;28;20214;-77
2022/11/15 09:37:38;;;;;;;0.40;0.40;;;;;;;;;;5065389;28;20177;-77
2022/11/15 09:40:04;;;;;;;0.40;0.40;;;17.40;1.00;;;;;;5073131;28;20175;-77
2022/11/15 09:42:39;;;;;;;0.40;0.40;;;;;;;;;;5072006;28;20183;-76
2022/11/15 09:45:24;;;;;;;0.50;0.50;;;;;;;;;;5071121;28;20190;-75
2022/11/15 09:47:59;;;;;;;0.30;0.30;;;;;;;;;;5062696;28;20215;-76
2022/11/15 09:50:39;;;;;;;0.40;0.40;;;;;;;;;;5055298;28;20249;-76
2022/11/15 09:53:05;;;;;;;0.40;0.40;;;;;;;;;;5055514;28;20201;-76
2022/11/15 09:55:41;;;;;;;0.30;0.30;;;;;;;;;;5054291;28;20593;-77
2022/11/15 09:58:30;;;;;;;0.40;0.40;;;;;;;;;;5054968;28;20182;-77
2022/11/15 10:00:58;;;;;;;0.47;0.47;;;;;;;;;;5047516;28;20270;-77
2022/11/15 10:03:29;;;;;;;0.50;0.50;;;;;;;;;;5055848;28;20167;-77
2022/11/15 10:05:58;;;;;;;0.40;0.40;;;;;;;;;;5055960;28;20202;-77
2022/11/15 10:09:02;;;;;;;0.47;0.47;;;19.20;1.00;;;;;;5055332;28;20262;-77
2022/11/15 10:11:36;;;;;;;0.40;0.40;;;21.30;1.00;;;;;;5055521;28;20163;-78
2022/11/15 10:14:03;;;;;;;0.30;0.30;;;;;;;;;;5054441;28;20219;-78
2022/11/15 10:16:29;;;;;;;0.40;0.40;;;;;;;;;;5054551;28;20197;-77
2022/11/15 10:19:15;;;;;;;0.40;0.40;;;;;;;;;;5054494;28;20748;-78
2022/11/15 10:21:50;;;;;;;0.30;0.30;;;;;;;;;;5054476;28;20186;-77
2022/11/15 10:24:20;;;;;;;0.40;0.40;;;;;;;;;;5053895;28;20686;-76
2022/11/15 10:26:49;;;;;;;0.50;0.50;;;;;;;;;;5054463;28;20181;-77
2022/11/15 10:29:21;;;;;;;0.40;0.40;;;20.30;1.00;;;;;;5056677;28;20179;-77
2022/11/15 10:31:47;;;;;;;0.40;0.40;;;;;;;;;;5060528;28;20245;-77
2022/11/15 10:34:15;;;;;;;0.30;0.30;;;;;;;;;;5040354;28;20227;-77
2022/11/15 10:36:58;;;;;;;0.40;0.40;;;19.40;1.00;;;;;;5079343;28;20182;-77
2022/11/15 10:39:24;;;;;;;0.40;0.40;;;18.30;1.00;;;;;;5076779;28;20319;-77
2022/11/15 10:41:50;;;;;;;0.30;0.30;;;17.70;1.00;;;;;;5075039;28;20177;-77
2022/11/15 10:44:31;;;;;;;0.40;0.40;;;17.20;1.00;;;;;;5074309;28;20612;-77
2022/11/15 10:47:02;;;;;;;0.40;0.40;;;16.80;1.00;;;;;;5075583;28;20198;-77
2022/11/15 10:49:33;;;;;;;0.40;0.40;;;16.60;1.00;;;;;;5074030;28;20174;-76
2022/11/15 10:52:15;;;;;;;0.40;0.40;;;16.40;1.00;;;;;;5062870;28;20269;-77
2022/11/15 10:54:42;;;;;;;0.53;0.53;;;16.20;1.00;;;;;;5067527;28;20220;-76
2022/11/15 10:57:14;;;;;;;0.40;0.40;;;16.00;1.00;;;;;;5074178;28;20189;-76
2022/11/15 10:59:45;;;;;;;0.47;0.47;;;15.80;1.00;;;;;;5074315;28;20174;-76
2022/11/15 11:02:26;;;;;;;0.30;0.30;;;15.60;1.00;;;;;;5073774;28;20174;-76
2022/11/15 11:04:52;;;;;;;0.53;0.53;;;15.50;1.00;;;;;;5072905;28;20569;-77
2022/11/15 11:07:24;;;;;;;0.40;0.40;;;15.50;1.00;;;;;;5074087;28;20174;-76
2022/11/15 11:10:18;;;;;;;0.40;0.40;;;15.40;1.00;;;;;;5074119;28;20179;-77
2022/11/15 11:12:43;;;;;;;0.40;0.40;;;15.30;1.00;;;;;;5072695;28;20643;-76
2022/11/15 11:15:12;;;;;;;0.50;0.50;;;15.20;1.00;;;;;;5072760;28;20221;-76
2022/11/15 11:18:09;;;;;;;0.50;0.50;;;15.00;1.00;;;;;;5073852;28;20194;-77
2022/11/15 11:20:47;;;;;;;0.43;0.43;;;14.90;1.00;;;;;;5073386;28;20205;-76
2022/11/15 11:23:37;;;;;;;0.60;0.60;;;14.80;1.00;;;;;;5073248;28;20175;-77
2022/11/15 11:26:34;;;;;;;0.60;0.60;;;14.70;1.00;;;;;;5072617;28;20662;-76
2022/11/15 11:29:39;;;;;;;0.43;0.43;;;14.60;60.10;;;;;;5073274;28;20178;-76
2022/11/15 11:32:22;;;;;;;0.50;0.50;;;14.60;99.90;;;;;;5049720;28;20186;-76
2022/11/15 11:35:06;;;;;;;0.50;0.50;;;14.50;99.90;;;;;;5072446;28;20296;-77
2022/11/15 11:37:50;;;;;;;0.50;0.50;;;14.50;99.90;;;;;;5072908;28;20269;-77
2022/11/15 11:40:29;;;;;;;0.40;0.40;;;14.40;99.90;;;;;;5073030;28;20229;-77
2022/11/15 11:43:24;;;;;;;0.50;0.50;;;14.20;1.00;;;;;;5073051;28;20248;-77
2022/11/15 11:46:22;;;;;;;0.40;0.40;;;14.20;1.00;;;;;;5072289;28;20682;-77
2022/11/15 11:48:53;;;;;;;0.30;0.30;;;14.00;1.00;;;;;;5072972;28;20253;-76
2022/11/15 11:51:28;;;;;;;0.40;0.40;;;14.00;1.00;;;;;;5072809;28;20178;-76
2022/11/15 11:54:31;;;;;;;0.40;0.40;;;14.10;1.00;;;;;;5072086;28;20178;-76
2022/11/15 11:56:59;;;;;;;0.40;0.40;;;14.10;1.00;;;;;;5040635;28;20205;-76
2022/11/15 11:59:36;;;;;;;0.50;0.50;;;14.10;1.00;;;;;;5072839;28;20182;-76
2022/11/15 12:02:29;;;;;;;0.43;0.43;;;14.20;1.00;;;;;;5072786;28;20208;-76
2022/11/15 12:05:04;;;;;;;0.40;0.40;;;14.20;1.00;;;;;;5063347;28;20198;-76
2022/11/15 12:07:34;;;;;;;0.40;0.40;;;14.30;1.00;;;;;;5072827;28;20178;-76
2022/11/15 12:10:15;;;;;;;0.40;0.40;;;14.50;1.00;;;;;;5072656;28;20198;-76
2022/11/15 12:12:47;;;;;;;0.40;0.40;;;14.70;99.90;;;;;;5072688;28;20192;-76
2022/11/15 12:15:14;;;;;;;0.40;0.40;;;14.80;99.90;;;;;;5071720;28;20218;-76
2022/11/15 12:17:41;;;;;;;0.47;0.47;;;14.80;1.00;;;;;;5072416;28;20197;-76
2022/11/15 12:20:26;;;;;;;0.40;0.40;;;14.80;1.00;;;;;;5072278;28;20197;-76
2022/11/15 12:23:17;;;;;;;0.50;0.50;;;14.80;1.00;;;;;;5052339;28;20175;-76
2022/11/15 12:26:20;;;;;;;0.40;0.40;;;14.80;1.00;;;;;;5051715;28;20730;-76
2022/11/15 12:28:59;;;;;;;0.50;0.50;;;14.80;1.00;;;;;;5042144;28;20186;-76
2022/11/15 12:31:43;;;;;;;0.40;0.40;;;14.60;1.00;;;;;;5052211;28;20193;-77
2022/11/15 12:34:21;;;;;;;0.43;0.43;;;14.40;99.90;;;;;;5051413;28;20219;-76
2022/11/15 12:36:49;;;;;;;0.50;0.50;;;14.30;99.90;;;;;;5052101;28;20179;-76
2022/11/15 12:39:16;;;;;;;0.50;0.50;;;14.30;1.00;;;;;;5052023;28;20221;-76
2022/11/15 12:42:03;;;;;;;0.50;0.50;;;14.30;1.00;;;;;;5051816;28;20634;-76
2022/11/15 12:44:31;;;;;;;0.40;0.40;;;14.30;1.00;;;;;;5020090;28;20659;-76
2022/11/15 12:46:57;;;;;;;0.40;0.40;;;14.20;1.00;;;;;;5051585;28;20651;-76
2022/11/15 12:49:25;;;;;;;0.40;0.40;;;14.10;1.00;;;;;;5052109;28;20194;-76
2022/11/15 12:51:52;;;;;;;0.40;0.40;;;14.00;1.00;;;;;;5052016;28;20183;-76
2022/11/15 12:54:23;;;;;;;0.40;0.40;;;14.00;99.90;;;;;;5051494;28;20230;-76
2022/11/15 12:57:07;;;;;;;0.40;0.40;;;13.80;1.00;;;;;;5051444;28;20300;-76
2022/11/15 13:00:01;;;;;;;0.40;0.40;;;14.00;1.00;;;;;;5051615;28;20262;-76
2022/11/15 13:02:31;;;;;;;0.57;0.57;;;14.00;1.00;;;;;;5052454;28;20186;-76
2022/11/15 13:05:20;;;;;;;0.40;0.40;;;14.00;1.00;;;;;;5049619;28;20261;-76
2022/11/15 13:07:48;;;;;;;0.40;0.40;;;14.10;1.00;;;;;;5030672;28;20201;-76
2022/11/15 13:10:31;;;;;;;0.40;0.40;;;14.10;99.90;;;;;;5070884;28;20170;-76
2022/11/15 13:13:07;;;;;;;0.50;0.50;;;14.10;99.90;;;;;;5071000;28;20174;-76
2022/11/15 13:16:01;;;;;;;0.60;0.60;;;14.00;1.00;;;;;;5069754;28;20271;-76
2022/11/15 13:18:28;;;;;;;0.50;0.50;;;14.00;99.90;;;;;;5071136;28;20261;-76
2022/11/15 13:20:54;;;;;;;0.50;0.50;;;13.90;99.90;;;;;;5070960;28;20173;-76
2022/11/15 13:23:22;;;;;;;0.50;0.50;;;13.90;1.00;;;;;;5071487;28;20174;-76
2022/11/15 13:25:56;;;;;;;0.57;0.57;;;13.90;1.00;;;;;;5071002;28;20274;-76
2022/11/15 13:28:28;;;;;;;0.50;0.50;;;13.80;1.00;;;;;;5071821;28;20178;-76
2022/11/15 13:31:13;;;;;;;0.40;0.40;;;13.80;99.90;;;;;;5071720;28;20216;-76
2022/11/15 13:33:39;;;;;;;0.50;0.50;;;13.80;6.50;;;;;;5071189;28;20583;-76
2022/11/15 13:36:21;;;;;;;0.70;0.70;;;13.70;99.90;;;;;;5070551;28;20673;-76
2022/11/15 13:39:02;;;;;;;0.50;0.50;;;13.70;99.90;;;;;;5070847;28;20682;-76
2022/11/15 13:41:30;;;;;;;0.43;0.43;;;13.60;1.00;;;;;;5071219;28;20170;-76
2022/11/15 13:43:57;;;;;;;0.60;0.60;;;13.60;1.00;;;;;;5070838;28;20224;-76
2022/11/15 13:46:28;;;;;;;0.40;0.40;;;13.70;99.90;;;;;;5071773;28;20178;-76
2022/11/15 13:49:07;;;;;;;0.50;0.50;;;13.70;99.90;;;;;;5071802;28;20190;-76
2022/11/15 13:51:33;;;;;;;0.50;0.50;;;13.60;48.30;;;;;;5072528;28;20701;-76
2022/11/15 13:54:01;;;;;;;0.50;0.50;;;13.70;1.00;;;;;;5071334;28;20221;-76
2022/11/15 13:56:28;;;;;;;0.40;0.40;;;13.70;1.00;;;;;;5071066;28;20178;-76
2022/11/15 13:58:54;;;;;;;0.47;0.47;;;13.60;1.00;;;;;;5070965;28;20206;-77
2022/11/15 14:01:22;;;;;;;0.50;0.50;;;13.70;1.00;;;;;;5070997;28;20514;-76
2022/11/15 14:03:57;;;;;;;0.40;0.40;;;13.70;1.00;;;;;;5070338;28;20545;-76
2022/11/15 14:06:25;;;;;;;0.50;0.50;;;13.60;1.00;;;;;;5071017;28;20174;-76
2022/11/15 14:09:09;;;;;;;0.40;0.40;;;13.60;99.90;;;;;;5070749;28;20638;-76
2022/11/15 14:11:34;;;;;;;0.40;0.40;;;13.60;1.00;;;;;;5070715;28;20558;-76
2022/11/15 14:14:09;;;;;;;0.50;0.50;;;13.60;1.00;;;;;;5070249;28;20170;-76
2022/11/15 14:16:45;;;;;;;0.50;0.50;;;13.60;1.00;;;;;;5071110;28;20178;-76
2022/11/15 14:19:20;;;;;;;0.40;0.40;;;13.60;99.90;;;;;;5070900;28;20247;-76
2022/11/15 14:22:28;;;;;;;0.50;0.50;;;13.60;1.00;;;;;;5070745;28;20174;-76
2022/11/15 14:25:38;;;;;;;0.50;0.50;;;13.60;99.90;;;;;;5061936;28;20207;-76
2022/11/15 14:28:21;;;;;;;0.40;0.40;;;13.50;1.00;;;;;;5039589;28;20183;-76
2022/11/15 14:30:49;;;;;;;0.40;0.40;;;13.60;1.00;;;;;;5074296;28;20184;-76
2022/11/15 14:33:32;;;;;;;0.50;0.50;;;13.60;1.00;;;;;;5074229;28;20571;-76
2022/11/15 14:36:12;;;;;;;0.50;0.50;;;13.40;1.00;;;;;;5073889;28;20265;-76
2022/11/15 14:38:38;;;;;;;0.40;0.40;;;13.40;73.00;;;;;;5074533;28;20182;-76
2022/11/15 14:41:03;;;;;;;0.50;0.50;;;13.30;1.00;;;;;;5074310;28;20182;-76